Time;durP1;ratioP1;P1;durP2;ratioP2;P2;SDS_P1;SDS_P2;PMS_P1;PMS_P2;Temp;Humidity;BMP_temperature;BMP_pressure;BME280_temperature;BME280_humidity;BME280_pressure;Samples;Min_cycle;Max_cycle;Signal;HPM_P1;HPM_P2
2023/04/14 00:00:37;;;;;;;4.53;3.13;;;6.10;99.90;;;;;;5074960;28;20465;-83
2023/04/14 00:03:03;;;;;;;6.47;3.20;;;6.10;99.90;;;;;;5074756;28;20041;-82
2023/04/14 00:05:30;;;;;;;15.25;3.40;;;6.10;99.90;;;;;;5074836;28;20052;-82
2023/04/14 00:07:56;;;;;;;10.30;4.28;;;6.00;99.90;;;;;;5074644;28;20075;-82
2023/04/14 00:10:22;;;;;;;6.57;3.22;;;6.00;99.90;;;;;;5078930;28;20048;-82
2023/04/14 00:12:49;;;;;;;7.18;3.45;;;6.00;99.90;;;;;;5078484;28;20170;-82
2023/04/14 00:15:15;;;;;;;10.93;2.97;;;5.90;99.90;;;;;;5077039;28;20367;-82
2023/04/14 00:17:40;;;;;;;5.03;3.00;;;6.00;99.90;;;;;;5076875;28;20097;-82
2023/04/14 00:20:07;;;;;;;6.47;3.08;;;6.00;99.90;;;;;;5074422;28;20052;-82
2023/04/14 00:22:33;;;;;;;6.22;3.50;;;5.90;99.90;;;;;;5074523;28;20042;-82
2023/04/14 00:25:00;;;;;;;4.72;3.33;;;5.90;99.90;;;;;;5073934;28;20515;-82
2023/04/14 00:27:26;;;;;;;7.43;3.58;;;5.90;99.90;;;;;;5074713;28;20051;-82
2023/04/14 00:29:52;;;;;;;6.32;3.15;;;5.80;99.90;;;;;;5073943;28;20102;-82
2023/04/14 00:32:18;;;;;;;5.57;3.50;;;5.90;99.90;;;;;;5073934;28;20048;-82
2023/04/14 00:34:43;;;;;;;5.15;3.22;;;5.80;99.90;;;;;;5074272;28;20045;-81
2023/04/14 00:37:09;;;;;;;5.88;3.42;;;5.80;99.90;;;;;;5073778;28;20510;-82
2023/04/14 00:39:35;;;;;;;7.80;3.65;;;5.80;99.90;;;;;;5072422;28;20044;-82
2023/04/14 00:42:01;;;;;;;9.02;4.70;;;5.80;99.90;;;;;;5074155;28;20086;-82
2023/04/14 00:44:27;;;;;;;6.60;3.30;;;5.80;99.90;;;;;;5073954;28;20040;-82
2023/04/14 00:46:53;;;;;;;8.18;4.25;;;5.80;99.90;;;;;;5073558;28;20044;-81
2023/04/14 00:49:19;;;;;;;6.85;3.38;;;5.70;99.90;;;;;;5072047;28;20061;-81
2023/04/14 00:51:46;;;;;;;6.88;3.40;;;5.80;99.90;;;;;;5074103;28;20503;-83
2023/04/14 00:54:15;;;;;;;10.13;3.50;;;5.70;99.90;;;;;;5072272;28;20071;-83
2023/04/14 00:56:41;;;;;;;9.07;3.28;;;5.80;99.90;;;;;;5073625;28;20431;-82
2023/04/14 00:59:08;;;;;;;4.47;3.25;;;5.70;99.90;;;;;;5072338;28;20044;-82
2023/04/14 01:01:37;;;;;;;4.40;2.85;;;5.70;99.90;;;;;;5073830;28;20047;-82
2023/04/14 01:04:03;;;;;;;6.47;3.40;;;5.60;99.90;;;;;;5072720;28;20044;-82
2023/04/14 01:06:29;;;;;;;4.72;2.85;;;5.60;99.90;;;;;;5072935;28;20078;-82
2023/04/14 01:08:56;;;;;;;6.80;3.22;;;5.50;99.90;;;;;;5072978;28;20090;-81
2023/04/14 01:11:48;;;;;;;6.30;3.65;;;5.50;99.90;;;;;;5088293;28;20586;-82
2023/04/14 01:14:35;;;;;;;7.13;3.85;;;5.40;99.90;;;;;;5073096;28;20051;-82
2023/04/14 01:17:18;;;;;;;6.15;3.08;;;5.40;99.90;;;;;;5072539;28;20052;-82
2023/04/14 01:20:05;;;;;;;6.35;3.42;;;5.30;99.90;;;;;;5072959;28;20127;-82
2023/04/14 01:22:33;;;;;;;6.68;3.08;;;5.30;99.90;;;;;;5072887;28;20051;-82
2023/04/14 01:25:30;;;;;;;5.55;3.58;;;5.30;99.90;;;;;;5072901;28;20417;-83
2023/04/14 01:28:20;;;;;;;3.58;2.70;;;5.20;99.90;;;;;;5072943;28;20082;-81
2023/04/14 01:31:04;;;;;;;4.43;2.80;;;5.10;99.90;;;;;;5071968;28;20063;-82
2023/04/14 01:33:35;;;;;;;6.78;3.17;;;5.20;99.90;;;;;;5072401;28;20113;-82
2023/04/14 01:36:05;;;;;;;8.75;3.33;;;5.10;99.90;;;;;;5072749;28;20044;-82
2023/04/14 01:38:33;;;;;;;6.78;4.35;;;5.10;99.90;;;;;;5072189;28;20476;-82
2023/04/14 01:41:05;;;;;;;6.70;2.92;;;5.10;99.90;;;;;;5073130;28;20461;-81
2023/04/14 01:43:32;;;;;;;7.13;3.70;;;5.10;99.90;;;;;;5072640;28;20488;-83
2023/04/14 01:46:05;;;;;;;4.65;3.35;;;4.90;99.90;;;;;;5073120;28;20046;-81
2023/04/14 01:48:32;;;;;;;6.75;3.30;;;5.00;99.90;;;;;;5070835;28;20067;-82
2023/04/14 01:50:59;;;;;;;5.38;3.42;;;5.00;99.90;;;;;;5072471;28;20083;-81
2023/04/14 01:53:27;;;;;;;4.32;2.67;;;5.00;99.90;;;;;;5071182;28;20534;-82
2023/04/14 01:55:54;;;;;;;7.22;3.33;;;5.00;99.90;;;;;;5072350;28;20052;-83
2023/04/14 01:58:21;;;;;;;3.42;2.65;;;4.90;99.90;;;;;;5072300;28;20060;-82
2023/04/14 02:00:49;;;;;;;5.75;2.90;;;4.70;99.90;;;;;;5072074;28;20045;-82
2023/04/14 02:03:20;;;;;;;6.53;3.60;;;4.70;99.90;;;;;;5072048;28;20067;-81
2023/04/14 02:05:50;;;;;;;5.60;3.75;;;4.60;99.90;;;;;;5071018;28;20044;-82
2023/04/14 02:08:17;;;;;;;5.30;3.72;;;4.70;99.90;;;;;;5071788;28;20052;-82
2023/04/14 02:10:45;;;;;;;4.75;3.10;;;4.60;99.90;;;;;;5072253;28;20436;-81
2023/04/14 02:13:12;;;;;;;7.85;3.78;;;4.60;99.90;;;;;;5070960;28;20053;-81
2023/04/14 02:15:39;;;;;;;4.78;3.22;;;4.70;99.90;;;;;;5072203;28;20041;-81
2023/04/14 02:18:06;;;;;;;6.25;3.00;;;4.70;99.90;;;;;;5072270;28;20055;-80
2023/04/14 02:20:33;;;;;;;5.60;3.35;;;4.90;99.90;;;;;;5072167;28;20075;-82
2023/04/14 02:22:59;;;;;;;4.78;3.10;;;4.90;99.90;;;;;;5071829;28;20067;-81
2023/04/14 02:25:31;;;;;;;4.82;3.08;;;5.10;99.90;;;;;;5071503;28;20371;-81
2023/04/14 02:28:04;;;;;;;4.20;3.00;;;5.20;99.90;;;;;;5072726;28;20124;-82
2023/04/14 02:30:34;;;;;;;4.20;2.72;;;5.30;99.90;;;;;;5070801;28;20394;-81
2023/04/14 02:33:09;;;;;;;4.78;2.97;;;5.40;99.90;;;;;;5072348;28;20044;-83
2023/04/14 02:35:45;;;;;;;4.65;3.40;;;5.40;99.90;;;;;;5071533;28;20057;-81
2023/04/14 02:38:40;;;;;;;4.60;2.65;;;5.40;99.90;;;;;;5072129;28;20048;-82
2023/04/14 02:41:15;;;;;;;4.75;3.33;;;5.40;99.90;;;;;;5072629;28;20048;-81
2023/04/14 02:43:54;;;;;;;4.03;2.53;;;5.30;99.90;;;;;;5071932;28;20048;-81
2023/04/14 02:46:22;;;;;;;5.63;3.15;;;5.30;99.90;;;;;;5071900;28;20041;-80
2023/04/14 02:48:50;;;;;;;3.67;2.92;;;5.40;99.90;;;;;;5071771;28;20416;-81
2023/04/14 02:51:18;;;;;;;6.35;2.90;;;5.40;99.90;;;;;;5071656;28;20534;-81
2023/04/14 02:53:44;;;;;;;5.85;3.03;;;5.50;99.90;;;;;;5071959;28;20063;-81
2023/04/14 02:56:11;;;;;;;6.10;3.60;;;5.50;99.90;;;;;;5071709;28;20036;-81
2023/04/14 02:58:38;;;;;;;7.88;3.65;;;5.50;99.90;;;;;;5072425;28;20152;-81
2023/04/14 03:01:04;;;;;;;6.43;2.95;;;5.50;99.90;;;;;;5071737;28;20044;-81
2023/04/14 03:03:32;;;;;;;5.03;3.00;;;5.40;99.90;;;;;;5071796;28;20044;-81
2023/04/14 03:05:58;;;;;;;11.68;3.63;;;5.40;99.90;;;;;;5072027;28;20043;-81
2023/04/14 03:08:25;;;;;;;3.83;3.15;;;5.40;99.90;;;;;;5070954;28;20040;-81
2023/04/14 03:10:51;;;;;;;5.63;3.17;;;5.40;99.90;;;;;;5070525;28;20121;-81
2023/04/14 03:13:18;;;;;;;5.15;3.17;;;5.40;99.90;;;;;;5072575;28;20048;-81
2023/04/14 03:15:45;;;;;;;6.25;3.80;;;5.30;99.90;;;;;;5075255;28;20044;-82
2023/04/14 03:18:13;;;;;;;6.00;4.05;;;5.30;99.90;;;;;;5074464;28;20505;-82
2023/04/14 03:20:40;;;;;;;4.97;3.63;;;5.20;99.90;;;;;;5075691;28;20105;-81
2023/04/14 03:23:10;;;;;;;4.75;3.53;;;5.20;99.90;;;;;;5076694;28;20066;-82
2023/04/14 03:25:39;;;;;;;5.32;3.97;;;5.10;99.90;;;;;;5076599;28;20045;-80
2023/04/14 03:28:13;;;;;;;5.97;3.55;;;5.10;99.90;;;;;;5075744;28;20489;-81
2023/04/14 03:30:43;;;;;;;4.60;3.33;;;5.20;99.90;;;;;;5075099;28;20052;-82
2023/04/14 03:33:11;;;;;;;3.72;2.95;;;5.30;99.90;;;;;;5075496;28;20055;-81
2023/04/14 03:35:37;;;;;;;6.68;3.85;;;5.40;99.90;;;;;;5075730;28;20084;-81
2023/04/14 03:38:07;;;;;;;5.82;3.80;;;5.40;99.90;;;;;;5074324;28;20063;-81
2023/04/14 03:40:37;;;;;;;6.55;3.20;;;5.30;99.90;;;;;;5075007;28;20049;-81
2023/04/14 03:43:06;;;;;;;5.40;4.15;;;5.30;99.90;;;;;;5074887;28;20051;-82
2023/04/14 03:45:32;;;;;;;8.65;4.10;;;5.20;99.90;;;;;;5074748;28;20123;-81
2023/04/14 03:48:02;;;;;;;3.90;3.60;;;5.10;99.90;;;;;;5074836;28;20044;-81
2023/04/14 03:50:35;;;;;;;7.30;4.53;;;5.20;99.90;;;;;;5073147;28;20060;-82
2023/04/14 03:53:04;;;;;;;3.63;3.17;;;5.10;99.90;;;;;;5074695;28;20073;-81
2023/04/14 03:55:32;;;;;;;7.13;3.67;;;5.10;99.90;;;;;;5074020;28;20157;-81
2023/04/14 03:58:00;;;;;;;6.75;3.55;;;5.10;99.90;;;;;;5073737;28;20059;-81
2023/04/14 04:00:26;;;;;;;4.80;3.72;;;5.10;99.90;;;;;;5074143;28;20508;-82
2023/04/14 04:02:53;;;;;;;6.28;3.65;;;5.10;99.90;;;;;;5074483;28;20052;-81
2023/04/14 04:05:20;;;;;;;7.32;3.97;;;5.00;99.90;;;;;;5074405;28;20044;-81
2023/04/14 04:07:49;;;;;;;7.93;3.75;;;4.90;99.90;;;;;;5073069;28;20041;-80
2023/04/14 04:10:15;;;;;;;7.43;3.65;;;4.80;99.90;;;;;;5074261;28;20048;-83
2023/04/14 04:12:42;;;;;;;6.15;3.70;;;4.90;99.90;;;;;;5073806;28;20045;-81
2023/04/14 04:15:08;;;;;;;6.05;3.90;;;4.70;99.90;;;;;;5073830;28;20044;-81
2023/04/14 04:17:35;;;;;;;5.38;3.35;;;4.70;99.90;;;;;;5089732;28;20048;-81
2023/04/14 04:20:06;;;;;;;6.25;3.95;;;4.70;99.90;;;;;;5074130;28;20048;-82
2023/04/14 04:22:35;;;;;;;3.83;3.45;;;4.60;99.90;;;;;;5074071;28;20450;-81
2023/04/14 04:25:01;;;;;;;5.18;3.67;;;4.60;99.90;;;;;;5073819;28;20059;-82
2023/04/14 04:27:28;;;;;;;5.25;3.65;;;4.50;99.90;;;;;;5074031;28;20044;-82
2023/04/14 04:29:53;;;;;;;3.28;2.97;;;4.50;99.90;;;;;;5073453;28;20055;-81
2023/04/14 04:32:19;;;;;;;5.50;3.67;;;4.60;99.90;;;;;;5073493;28;20107;-81
2023/04/14 04:34:47;;;;;;;5.47;3.80;;;4.30;99.90;;;;;;5073036;28;20079;-83
2023/04/14 04:37:13;;;;;;;6.07;4.07;;;4.30;99.90;;;;;;5073553;28;20110;-81
2023/04/14 04:39:38;;;;;;;4.57;3.53;;;4.30;99.90;;;;;;5072791;28;20461;-82
2023/04/14 04:42:05;;;;;;;6.60;3.47;;;4.30;99.90;;;;;;5073199;28;20123;-82
2023/04/14 04:44:33;;;;;;;4.45;3.17;;;4.20;99.90;;;;;;5073329;28;20524;-81
2023/04/14 04:46:59;;;;;;;6.72;3.47;;;4.20;99.90;;;;;;5072210;28;20490;-82
2023/04/14 04:49:25;;;;;;;6.20;3.38;;;4.20;99.90;;;;;;5072068;28;20052;-82
2023/04/14 04:51:51;;;;;;;4.18;3.55;;;4.20;99.90;;;;;;5072559;28;20114;-82
2023/04/14 04:54:17;;;;;;;6.97;3.97;;;4.30;99.90;;;;;;5072968;28;20476;-81
2023/04/14 04:56:42;;;;;;;5.40;3.80;;;4.30;99.90;;;;;;5071813;28;20474;-82
2023/04/14 04:59:08;;;;;;;4.70;3.80;;;4.30;99.90;;;;;;5072949;28;20076;-81
2023/04/14 05:01:34;;;;;;;5.93;4.03;;;4.20;99.90;;;;;;5072994;28;20048;-82
2023/04/14 05:04:00;;;;;;;5.90;3.80;;;4.20;99.90;;;;;;5072143;28;20055;-82
2023/04/14 05:06:27;;;;;;;4.10;3.50;;;4.10;99.90;;;;;;5071570;28;20055;-82
2023/04/14 05:08:55;;;;;;;4.15;3.75;;;4.10;99.90;;;;;;5072316;28;20048;-83
2023/04/14 05:11:22;;;;;;;6.97;4.57;;;4.20;99.90;;;;;;5071768;28;20060;-82
2023/04/14 05:13:48;;;;;;;5.95;3.90;;;4.10;99.90;;;;;;5072754;28;20138;-82
2023/04/14 05:16:14;;;;;;;6.70;3.97;;;4.20;99.90;;;;;;5071936;28;20053;-82
2023/04/14 05:18:41;;;;;;;6.60;3.80;;;4.10;99.90;;;;;;5072664;28;20087;-82
2023/04/14 05:21:08;;;;;;;7.53;4.15;;;4.10;99.90;;;;;;5088264;28;20059;-82
2023/04/14 05:23:38;;;;;;;5.40;4.38;;;4.10;99.90;;;;;;5072607;28;20044;-82
2023/04/14 05:26:05;;;;;;;5.20;4.55;;;4.20;99.90;;;;;;5072445;28;20045;-81
2023/04/14 05:28:31;;;;;;;6.95;4.10;;;4.20;99.90;;;;;;5072407;28;20056;-82
2023/04/14 05:30:57;;;;;;;5.25;4.20;;;4.20;99.90;;;;;;5072705;28;20205;-82
2023/04/14 05:33:23;;;;;;;5.50;3.88;;;4.20;99.90;;;;;;5071191;28;20469;-82
2023/04/14 05:35:51;;;;;;;7.03;5.00;;;4.30;99.90;;;;;;5072416;28;20196;-82
2023/04/14 05:38:19;;;;;;;7.07;4.30;;;4.30;99.90;;;;;;5072555;28;20055;-81
2023/04/14 05:40:45;;;;;;;6.82;4.50;;;4.30;99.90;;;;;;5072721;28;20048;-82
2023/04/14 05:43:11;;;;;;;7.47;4.70;;;4.40;99.90;;;;;;5072210;28;20526;-82
2023/04/14 05:45:37;;;;;;;7.05;4.43;;;4.40;99.90;;;;;;5071667;28;20070;-82
2023/04/14 05:48:02;;;;;;;6.78;4.88;;;4.50;99.90;;;;;;5072273;28;20040;-82
2023/04/14 05:50:28;;;;;;;5.57;4.80;;;4.50;99.90;;;;;;5071976;28;20102;-82
2023/04/14 05:52:54;;;;;;;6.80;4.30;;;4.50;99.90;;;;;;5072159;28;20549;-81
2023/04/14 05:55:20;;;;;;;6.30;4.18;;;4.60;99.90;;;;;;5071241;28;20472;-81
2023/04/14 05:57:46;;;;;;;5.15;3.90;;;4.60;99.90;;;;;;5087673;28;20040;-82
2023/04/14 06:00:13;;;;;;;7.15;4.10;;;4.60;99.90;;;;;;5071310;28;20070;-82
2023/04/14 06:02:39;;;;;;;5.18;4.35;;;4.70;99.90;;;;;;5087792;28;20225;-82
2023/04/14 06:05:06;;;;;;;8.88;4.57;;;4.70;99.90;;;;;;5071088;28;20052;-82
2023/04/14 06:07:34;;;;;;;6.75;4.30;;;4.70;99.90;;;;;;5072013;28;20080;-82
2023/04/14 06:10:03;;;;;;;6.43;4.07;;;4.80;99.90;;;;;;5087793;28;20055;-82
2023/04/14 06:12:29;;;;;;;8.30;5.20;;;4.90;99.90;;;;;;5071229;28;20055;-82
2023/04/14 06:14:55;;;;;;;7.63;5.32;;;5.00;99.90;;;;;;5072156;28;20044;-81
2023/04/14 06:17:21;;;;;;;9.57;8.20;;;4.90;99.90;;;;;;5072033;28;20102;-81
2023/04/14 06:19:47;;;;;;;15.98;13.45;;;5.00;99.90;;;;;;5072742;28;20124;-82
2023/04/14 06:22:20;;;;;;;16.75;13.45;;;5.10;99.90;;;;;;5071749;28;20064;-82
2023/04/14 06:24:46;;;;;;;20.40;17.50;;;5.20;99.90;;;;;;5070890;28;20064;-79
2023/04/14 06:27:12;;;;;;;22.95;20.23;;;5.20;99.90;;;;;;5071943;28;20040;-83
2023/04/14 06:29:38;;;;;;;15.63;13.90;;;5.30;99.90;;;;;;5071814;28;20052;-83
2023/04/14 06:32:03;;;;;;;13.18;10.98;;;5.40;99.90;;;;;;5071034;28;20143;-84
2023/04/14 06:34:29;;;;;;;11.00;8.35;;;5.60;99.90;;;;;;5076381;28;20060;-85
2023/04/14 06:36:55;;;;;;;10.85;6.93;;;5.70;99.90;;;;;;5081654;28;20052;-84
2023/04/14 06:39:21;;;;;;;10.32;5.95;;;5.90;99.90;;;;;;5097853;28;20112;-83
2023/04/14 06:41:47;;;;;;;16.00;5.72;;;6.00;99.90;;;;;;5074792;28;20072;-83
2023/04/14 06:44:13;;;;;;;7.15;5.32;;;6.20;99.90;;;;;;5074272;28;20066;-83
2023/04/14 06:46:39;;;;;;;6.55;5.25;;;6.40;99.90;;;;;;5072733;28;20047;-83
2023/04/14 06:49:06;;;;;;;8.52;5.63;;;6.50;99.90;;;;;;5075496;28;20362;-83
2023/04/14 06:51:32;;;;;;;9.30;5.40;;;6.70;99.90;;;;;;5091795;28;20056;-83
2023/04/14 06:53:58;;;;;;;8.00;5.35;;;6.80;99.90;;;;;;5075894;28;20095;-84
2023/04/14 06:56:24;;;;;;;8.32;4.30;;;7.00;99.90;;;;;;5075927;28;20040;-83
2023/04/14 06:58:50;;;;;;;8.23;4.40;;;7.20;99.90;;;;;;5074762;28;20045;-82
2023/04/14 07:01:15;;;;;;;8.35;4.10;;;7.40;99.90;;;;;;5074708;28;20130;-82
2023/04/14 07:03:42;;;;;;;10.45;4.40;;;7.70;99.90;;;;;;5075756;28;20048;-82
2023/04/14 07:06:10;;;;;;;10.13;4.72;;;7.90;99.90;;;;;;5075610;28;20037;-82
2023/04/14 07:08:37;;;;;;;7.72;3.65;;;8.20;99.90;;;;;;5074610;28;20105;-74
2023/04/14 07:11:05;;;;;;;4.25;3.50;;;8.50;99.90;;;;;;5074552;28;20045;-80
2023/04/14 07:13:32;;;;;;;6.03;3.88;;;8.90;99.90;;;;;;5075417;28;20094;-80
2023/04/14 07:16:00;;;;;;;3.95;3.30;;;9.90;99.90;;;;;;5075023;28;20040;-81
2023/04/14 07:18:26;;;;;;;6.68;3.13;;;11.60;99.90;;;;;;5075010;28;20044;-81
2023/04/14 07:20:53;;;;;;;6.45;2.90;;;13.30;99.90;;;;;;5074291;28;20049;-81
2023/04/14 07:23:19;;;;;;;5.03;2.95;;;14.50;99.90;;;;;;5074624;28;20098;-81
2023/04/14 07:25:50;;;;;;;5.68;3.67;;;15.60;99.90;;;;;;5074925;28;20044;-81
2023/04/14 07:28:16;;;;;;;4.10;2.78;;;16.50;99.90;;;;;;5074281;28;20044;-81
2023/04/14 07:30:42;;;;;;;6.82;2.90;;;17.00;99.90;;;;;;5075421;28;20048;-82
2023/04/14 07:33:08;;;;;;;3.83;2.70;;;17.70;99.90;;;;;;5074724;28;20120;-82
2023/04/14 07:35:34;;;;;;;4.07;2.53;;;18.40;99.90;;;;;;5074797;28;20123;-81
2023/04/14 07:37:59;;;;;;;6.53;2.85;;;18.80;99.90;;;;;;5074780;28;20048;-82
2023/04/14 07:40:25;;;;;;;6.47;2.80;;;19.30;99.90;;;;;;5074610;28;20470;-82
2023/04/14 07:42:51;;;;;;;8.98;2.72;;;19.60;99.90;;;;;;5090421;28;20450;-81
2023/04/14 07:45:17;;;;;;;4.70;2.80;;;19.70;99.90;;;;;;5073704;28;20076;-82
2023/04/14 07:47:43;;;;;;;7.57;4.53;;;19.90;99.90;;;;;;5074587;28;20054;-82
2023/04/14 07:50:09;;;;;;;7.28;2.63;;;20.00;99.90;;;;;;5074667;28;20110;-81
2023/04/14 07:52:35;;;;;;;4.70;2.60;;;20.30;99.70;;;;;;5074708;28;20070;-76
2023/04/14 07:55:02;;;;;;;7.45;2.75;;;20.00;98.30;;;;;;5073452;28;20072;-81
2023/04/14 07:57:27;;;;;;;4.95;2.20;;;20.20;98.70;;;;;;5074249;28;20060;-82
2023/04/14 07:59:53;;;;;;;5.57;2.17;;;20.60;98.30;;;;;;5073421;28;20101;-76
2023/04/14 08:02:20;;;;;;;6.43;2.20;;;20.60;97.00;;;;;;5074145;28;20049;-76
2023/04/14 08:04:46;;;;;;;4.60;1.75;;;20.70;96.20;;;;;;5075571;28;20175;-83
2023/04/14 08:07:15;;;;;;;4.40;2.83;;;20.80;95.60;;;;;;5076162;28;20080;-81
2023/04/14 08:09:40;;;;;;;4.85;2.25;;;20.90;95.40;;;;;;5089547;28;20362;-81
2023/04/14 08:12:06;;;;;;;6.05;2.05;;;21.00;94.70;;;;;;5072892;28;20044;-81
2023/04/14 08:14:32;;;;;;;5.20;2.22;;;21.00;94.00;;;;;;5074903;28;20052;-81
2023/04/14 08:16:57;;;;;;;6.97;2.92;;;21.10;93.30;;;;;;5073257;28;20052;-82
2023/04/14 08:19:23;;;;;;;5.25;2.25;;;21.00;93.40;;;;;;5074422;28;20049;-81
2023/04/14 08:21:50;;;;;;;3.88;2.40;;;21.20;93.30;;;;;;5074019;28;20070;-82
2023/04/14 08:24:15;;;;;;;5.57;2.28;;;21.10;92.80;;;;;;5074026;28;20048;-82
2023/04/14 08:26:41;;;;;;;5.07;2.10;;;21.30;92.90;;;;;;5073883;28;20105;-82
2023/04/14 08:29:07;;;;;;;5.30;2.40;;;21.60;92.20;;;;;;5073836;28;20131;-82
2023/04/14 08:31:33;;;;;;;6.93;2.97;;;21.90;91.70;;;;;;5106823;28;20044;-82
2023/04/14 08:33:59;;;;;;;8.35;2.42;;;22.20;91.10;;;;;;5072911;28;20049;-81
2023/04/14 08:36:26;;;;;;;5.45;2.15;;;21.90;89.60;;;;;;5073683;28;20354;-82
2023/04/14 08:38:52;;;;;;;4.50;2.85;;;21.80;89.40;;;;;;5073613;28;20525;-82
2023/04/14 08:41:21;;;;;;;7.25;2.58;;;21.10;88.20;;;;;;5072648;28;20485;-82
2023/04/14 08:43:47;;;;;;;4.82;2.53;;;21.20;89.40;;;;;;5073948;28;20036;-82
2023/04/14 08:46:14;;;;;;;4.68;2.30;;;21.40;90.00;;;;;;5089270;28;20049;-82
2023/04/14 08:48:40;;;;;;;6.07;2.72;;;21.50;89.90;;;;;;5072367;28;20105;-81
2023/04/14 08:51:37;;;;;;;3.95;2.00;;;21.60;89.70;;;;;;5073447;28;20087;-81
2023/04/14 08:54:12;;;;;;;6.43;2.63;;;21.60;82.00;;;;;;5072592;28;20049;-82
2023/04/14 08:56:42;;;;;;;5.05;2.13;;;21.60;87.50;;;;;;5072175;28;20044;-82
2023/04/14 08:59:09;;;;;;;4.38;2.08;;;21.70;85.30;;;;;;5073910;28;20093;-82
2023/04/14 09:01:36;;;;;;;9.38;2.75;;;21.90;86.60;;;;;;5073266;28;20499;-81
2023/04/14 09:04:03;;;;;;;6.97;2.83;;;21.80;85.80;;;;;;5073114;28;20542;-81
2023/04/14 09:06:29;;;;;;;4.72;2.30;;;21.90;84.90;;;;;;5073102;28;20040;-81
2023/04/14 09:08:56;;;;;;;6.30;2.65;;;21.90;83.20;;;;;;5072287;28;20056;-81
2023/04/14 09:11:22;;;;;;;6.45;2.33;;;21.70;82.80;;;;;;5071912;28;20518;-82
2023/04/14 09:13:48;;;;;;;4.43;2.08;;;21.50;82.60;;;;;;5072569;28;20044;-82
2023/04/14 09:16:16;;;;;;;6.75;3.25;;;22.00;84.40;;;;;;5072911;28;20551;-82
2023/04/14 09:18:42;;;;;;;3.33;2.03;;;22.20;82.50;;;;;;5072636;28;20481;-82
2023/04/14 09:21:10;;;;;;;5.18;2.15;;;22.40;82.60;;;;;;5072629;28;20047;-83
2023/04/14 09:23:37;;;;;;;9.85;2.80;;;22.30;81.40;;;;;;5072582;28;20051;-82
2023/04/14 09:26:07;;;;;;;3.45;1.83;;;22.20;82.50;;;;;;5072563;28;20082;-82
2023/04/14 09:28:34;;;;;;;6.65;2.35;;;22.10;82.70;;;;;;5071846;28;20048;-83
2023/04/14 09:31:01;;;;;;;12.18;3.42;;;22.40;82.20;;;;;;5071482;28;20048;-83
2023/04/14 09:33:27;;;;;;;13.35;3.58;;;22.40;81.80;;;;;;5073042;28;20145;-84
2023/04/14 09:35:54;;;;;;;7.35;2.40;;;22.20;82.10;;;;;;5071204;28;20048;-83
2023/04/14 09:38:34;;;;;;;9.98;2.80;;;22.00;82.10;;;;;;5072588;28;20055;-84
2023/04/14 09:41:00;;;;;;;5.38;2.28;;;21.40;76.90;;;;;;5071655;28;20048;-83
2023/04/14 09:43:26;;;;;;;7.97;1.88;;;21.50;81.80;;;;;;5072548;28;20055;-82
2023/04/14 09:45:53;;;;;;;3.00;1.98;;;21.50;82.40;;;;;;5072492;28;20047;-82
2023/04/14 09:48:19;;;;;;;3.47;2.08;;;21.70;81.50;;;;;;5074974;28;20048;-84
2023/04/14 09:50:59;;;;;;;2.63;1.90;;;20.80;75.60;;;;;;5077109;28;20114;-80
2023/04/14 09:53:26;;;;;;;6.15;2.28;;;19.40;74.60;;;;;;5075427;28;20055;-82
2023/04/14 09:55:52;;;;;;;5.00;1.80;;;19.30;82.10;;;;;;5072419;28;20049;-80
2023/04/14 09:58:21;;;;;;;6.68;2.65;;;19.70;81.10;;;;;;5073829;28;20509;-82
2023/04/14 10:00:48;;;;;;;5.05;2.28;;;20.00;81.10;;;;;;5072261;28;20056;-80
2023/04/14 10:03:14;;;;;;;3.88;2.08;;;20.20;79.50;;;;;;5072554;28;20048;-82
2023/04/14 10:05:46;;;;;;;6.38;2.10;;;20.50;80.40;;;;;;5072242;28;20473;-81
2023/04/14 10:08:12;;;;;;;8.93;2.80;;;20.50;75.70;;;;;;5054666;28;20127;-81
2023/04/14 10:10:38;;;;;;;5.00;2.10;;;20.00;79.90;;;;;;5071276;28;20071;-81
2023/04/14 10:13:03;;;;;;;5.65;2.33;;;20.00;81.20;;;;;;5072111;28;20048;-79
2023/04/14 10:15:29;;;;;;;3.50;1.85;;;20.70;81.60;;;;;;5072233;28;20045;-81
2023/04/14 10:17:55;;;;;;;3.78;1.83;;;21.10;81.00;;;;;;5072298;28;20095;-82
2023/04/14 10:20:21;;;;;;;5.47;2.30;;;21.40;80.20;;;;;;5088586;28;20080;-81
2023/04/14 10:22:47;;;;;;;3.67;2.38;;;21.90;79.50;;;;;;5073841;28;20147;-82
2023/04/14 10:25:13;;;;;;;5.88;2.22;;;22.20;78.60;;;;;;5091781;28;20044;-83
2023/04/14 10:27:40;;;;;;;3.60;2.20;;;22.30;77.30;;;;;;5075132;28;20098;-80
2023/04/14 10:30:07;;;;;;;5.38;2.78;;;22.50;77.30;;;;;;5076027;28;20095;-79
2023/04/14 10:32:35;;;;;;;4.43;2.25;;;21.90;76.50;;;;;;5076168;28;20123;-81
2023/04/14 10:35:05;;;;;;;7.43;2.80;;;21.90;76.10;;;;;;5075933;28;20053;-82
2023/04/14 10:37:32;;;;;;;4.63;2.67;;;22.00;74.90;;;;;;5076041;28;20503;-82
2023/04/14 10:40:00;;;;;;;6.55;2.80;;;22.10;76.30;;;;;;5091582;28;20127;-81
2023/04/14 10:42:26;;;;;;;10.05;2.90;;;22.30;76.10;;;;;;5076257;28;20545;-81
2023/04/14 10:45:06;;;;;;;6.63;3.05;;;22.70;75.80;;;;;;5075050;28;20094;-81
2023/04/14 10:47:34;;;;;;;6.80;3.70;;;22.60;73.90;;;;;;5074996;28;20067;-82
2023/04/14 10:50:11;;;;;;;6.93;2.53;;;21.80;76.40;;;;;;5075931;28;20068;-80
2023/04/14 10:52:38;;;;;;;4.15;2.55;;;20.70;74.70;;;;;;5075918;28;20092;-81
2023/04/14 10:55:08;;;;;;;8.82;3.10;;;20.30;78.30;;;;;;5075690;28;20060;-81
2023/04/14 10:57:42;;;;;;;6.28;2.72;;;19.60;78.00;;;;;;5074524;28;20473;-81
2023/04/14 11:00:28;;;;;;;8.30;3.25;;;18.40;73.00;;;;;;5076007;28;20044;-81
2023/04/14 11:02:57;;;;;;;5.13;2.92;;;18.00;77.10;;;;;;5075517;28;20051;-81
2023/04/14 11:05:23;;;;;;;5.05;3.28;;;17.60;79.90;;;;;;5075261;28;20051;-80
2023/04/14 11:07:55;;;;;;;5.53;3.20;;;17.50;80.10;;;;;;5074480;28;20162;-81
2023/04/14 11:10:23;;;;;;;5.32;2.88;;;17.50;80.00;;;;;;5075463;28;20049;-79
2023/04/14 11:12:56;;;;;;;5.43;2.20;;;17.00;79.20;;;;;;5074990;28;20045;-82
2023/04/14 11:15:22;;;;;;;4.30;2.53;;;17.10;78.90;;;;;;5075256;28;20063;-78
2023/04/14 11:17:48;;;;;;;4.43;2.67;;;16.80;77.40;;;;;;5074605;28;20461;-82
2023/04/14 11:20:16;;;;;;;7.00;3.25;;;16.70;77.40;;;;;;5074767;28;20045;-80
2023/04/14 11:22:44;;;;;;;8.93;4.70;;;16.70;77.90;;;;;;5074965;28;20063;-80
2023/04/14 11:25:20;;;;;;;4.40;2.90;;;16.80;78.80;;;;;;5073948;28;20137;-82
2023/04/14 11:27:50;;;;;;;6.97;3.08;;;16.30;76.90;;;;;;5074921;28;20061;-83
2023/04/14 11:30:20;;;;;;;9.93;3.42;;;15.90;79.70;;;;;;5073537;28;20052;-82
2023/04/14 11:32:56;;;;;;;7.28;2.85;;;15.70;80.20;;;;;;5074894;28;20162;-81
2023/04/14 11:35:26;;;;;;;3.42;1.90;;;16.00;79.30;;;;;;5073333;28;20497;-83
2023/04/14 11:37:56;;;;;;;4.65;2.33;;;16.10;79.60;;;;;;5074993;28;20040;-83
2023/04/14 11:40:23;;;;;;;5.68;2.67;;;16.20;78.60;;;;;;5074647;28;20075;-84
2023/04/14 11:42:54;;;;;;;5.03;2.47;;;16.10;79.40;;;;;;5074802;28;20100;-83
2023/04/14 11:45:20;;;;;;;5.45;2.72;;;16.10;79.00;;;;;;5074641;28;20048;-83
2023/04/14 11:47:57;;;;;;;6.13;2.67;;;16.20;79.30;;;;;;5074576;28;20370;-81
2023/04/14 11:50:22;;;;;;;3.97;2.50;;;16.20;80.20;;;;;;5075194;28;20060;-82
2023/04/14 11:52:48;;;;;;;4.22;2.30;;;16.10;79.30;;;;;;5090041;28;20070;-82
2023/04/14 11:55:14;;;;;;;4.45;2.20;;;16.00;78.20;;;;;;5074402;28;20075;-81
2023/04/14 11:57:44;;;;;;;3.83;2.38;;;16.00;78.60;;;;;;5073534;28;20053;-81
2023/04/14 12:00:14;;;;;;;3.33;2.25;;;15.80;78.90;;;;;;5074199;28;20052;-73
2023/04/14 12:02:44;;;;;;;3.50;2.00;;;15.80;79.90;;;;;;5074226;28;20055;-82
2023/04/14 12:05:10;;;;;;;4.15;1.95;;;15.80;79.40;;;;;;5074179;28;20048;-83
2023/04/14 12:07:37;;;;;;;4.18;2.40;;;15.80;79.80;;;;;;5074137;28;20048;-82
2023/04/14 12:10:04;;;;;;;6.10;2.75;;;15.80;80.20;;;;;;5073911;28;20123;-81
2023/04/14 12:12:32;;;;;;;5.53;2.53;;;15.70;79.70;;;;;;5073777;28;20053;-81
2023/04/14 12:14:58;;;;;;;4.47;2.42;;;15.60;80.30;;;;;;5073944;28;20374;-83
2023/04/14 12:17:24;;;;;;;3.83;2.28;;;15.60;80.80;;;;;;5089206;28;20497;-80
2023/04/14 12:19:50;;;;;;;4.88;2.75;;;15.50;80.90;;;;;;5089659;28;20103;-83
2023/04/14 12:22:27;;;;;;;4.10;2.13;;;15.40;82.20;;;;;;5073286;28;20051;-82
2023/04/14 12:24:54;;;;;;;4.28;2.10;;;15.50;81.30;;;;;;5073782;28;20044;-84
2023/04/14 12:27:24;;;;;;;3.13;1.92;;;15.40;79.90;;;;;;5088862;28;20433;-84
2023/04/14 12:29:51;;;;;;;3.67;2.00;;;15.50;79.70;;;;;;5074165;28;20127;-83
2023/04/14 12:32:17;;;;;;;3.47;2.25;;;15.70;79.70;;;;;;5073739;28;20497;-82
2023/04/14 12:35:00;;;;;;;6.20;2.30;;;15.90;80.10;;;;;;5072511;28;20095;-84
2023/04/14 12:37:26;;;;;;;3.83;2.33;;;15.90;77.50;;;;;;5073609;28;20049;-86
2023/04/14 12:39:57;;;;;;;7.13;2.30;;;15.70;78.90;;;;;;5073539;28;20052;-83
2023/04/14 12:42:46;;;;;;;4.43;2.20;;;15.60;78.80;;;;;;5056386;28;20048;-82
2023/04/14 12:45:12;;;;;;;4.05;2.42;;;15.50;79.50;;;;;;5072430;28;20072;-82
2023/04/14 12:47:38;;;;;;;8.43;2.40;;;15.50;80.20;;;;;;5072220;28;20442;-84
2023/04/14 12:50:28;;;;;;;5.95;2.53;;;15.50;80.10;;;;;;5071398;28;20101;-84
2023/04/14 12:52:55;;;;;;;6.25;2.47;;;15.50;80.40;;;;;;5072260;28;20049;-87
2023/04/14 12:55:23;;;;;;;5.35;2.42;;;15.40;79.70;;;;;;5073167;28;20110;-84
2023/04/14 12:57:53;;;;;;;6.80;2.63;;;15.30;79.90;;;;;;5073010;28;20072;-84